Time;durP1;ratioP1;P1;durP2;ratioP2;P2;SDS_P1;SDS_P2;PMS_P1;PMS_P2;Temp;Humidity;BMP_temperature;BMP_pressure;BME280_temperature;BME280_humidity;BME280_pressure;Samples;Min_cycle;Max_cycle;Signal;HPM_P1;HPM_P2
2023/04/13 00:00:22;;;;;;;19.73;3.37;;;;;;;;;;5111441;28;20622;-75
2023/04/13 00:02:54;;;;;;;18.60;3.17;;;;;;;;;;5110958;28;20329;-75
2023/04/13 00:05:22;;;;;;;18.17;4.30;;;;;;;;;;5111118;28;20197;-75
2023/04/13 00:07:49;;;;;;;15.60;3.20;;;;;;;;;;5110891;28;20562;-75
2023/04/13 00:10:17;;;;;;;17.23;3.10;;;;;;;;;;5111362;28;20227;-74
2023/04/13 00:12:46;;;;;;;13.47;2.70;;;;;;;;;;5111251;28;20198;-75
2023/04/13 00:15:13;;;;;;;18.33;2.73;;;;;;;;;;5110970;28;20220;-75
2023/04/13 00:17:41;;;;;;;12.90;2.77;;;;;;;;;;5111426;28;20215;-75
2023/04/13 00:20:12;;;;;;;14.67;2.83;;;;;;;;;;5114873;28;20196;-76
2023/04/13 00:22:39;;;;;;;16.77;3.00;;;;;;;;;;5115064;28;20226;-74
2023/04/13 00:25:07;;;;;;;16.77;3.37;;;;;;;;;;5115254;28;20197;-75
2023/04/13 00:27:35;;;;;;;19.63;3.33;;;;;;;;;;5114812;28;20281;-74
2023/04/13 00:30:02;;;;;;;13.47;2.73;;;;;;;;;;5115128;28;20258;-74
2023/04/13 00:32:30;;;;;;;15.87;2.80;;;;;;;;;;5115024;28;20208;-74
2023/04/13 00:34:57;;;;;;;17.20;3.27;;;;;;;;;;5114190;28;20639;-74
2023/04/13 00:37:28;;;;;;;19.17;2.90;;;;;;;;;;5114596;28;20647;-74
2023/04/13 00:39:55;;;;;;;17.93;3.47;;;;;;;;;;5114859;28;20579;-74
2023/04/13 00:42:22;;;;;;;19.23;3.20;;;;;;;;;;5114621;28;20201;-74
2023/04/13 00:44:49;;;;;;;17.00;3.07;;;;;;;;;;5114914;28;20284;-74
2023/04/13 00:47:18;;;;;;;18.17;2.87;;;;;;;;;;5114891;28;20291;-74
2023/04/13 00:49:46;;;;;;;17.90;3.03;;;;;;;;;;5114192;28;20317;-75
2023/04/13 00:52:13;;;;;;;13.27;2.60;;;;;;;;;;5114644;28;20204;-75
2023/04/13 00:54:41;;;;;;;17.20;3.33;;;;;;;;;;5114892;28;20682;-74
2023/04/13 00:57:09;;;;;;;16.33;3.27;;;;;;;;;;5114584;28;20282;-76
2023/04/13 00:59:37;;;;;;;22.07;3.10;;;;;;;;;;5114635;28;20236;-74
2023/04/13 01:02:06;;;;;;;17.20;3.10;;;;;;;;;;5114554;28;20220;-75
2023/04/13 01:04:34;;;;;;;17.33;2.80;;;;;;;;;;5114791;28;20583;-76
2023/04/13 01:07:05;;;;;;;20.27;3.30;;;;;;;;;;5114423;28;20230;-75
2023/04/13 01:09:35;;;;;;;15.90;2.93;;;;;;;;;;5114390;28;20192;-75
2023/04/13 01:12:07;;;;;;;19.00;2.80;;;;;;;;;;5114193;28;20228;-75
2023/04/13 01:14:37;;;;;;;17.53;3.93;;;;;;;;;;5114047;28;20749;-75
2023/04/13 01:17:06;;;;;;;17.30;2.60;;;;;;;;;;5113932;28;20203;-75
2023/04/13 01:19:42;;;;;;;20.57;2.60;;;;;;;;;;5113966;28;20200;-75
2023/04/13 01:22:11;;;;;;;21.47;3.27;;;;;;;;;;5114267;28;20219;-75
2023/04/13 01:24:41;;;;;;;18.73;3.07;;;;;;;;;;5114179;28;20303;-75
2023/04/13 01:27:12;;;;;;;17.73;3.43;;;;;;;;;;5113912;28;20194;-74
2023/04/13 01:29:43;;;;;;;17.20;2.97;;;;;;;;;;5113768;28;20279;-74
2023/04/13 01:32:10;;;;;;;14.80;2.87;;;;;;;;;;5113616;28;20286;-75
2023/04/13 01:34:37;;;;;;;17.27;3.17;;;;;;;;;;5113602;28;20195;-74
2023/04/13 01:37:05;;;;;;;19.53;2.97;;;;;;;;;;5113953;28;20278;-74
2023/04/13 01:39:33;;;;;;;15.37;3.00;;;;;;;;;;5114060;28;20196;-74
2023/04/13 01:42:00;;;;;;;18.60;2.97;;;;;;;;;;5113696;28;20273;-74
2023/04/13 01:44:29;;;;;;;13.53;2.77;;;;;;;;;;5113558;28;20233;-74
2023/04/13 01:47:03;;;;;;;13.60;2.40;;;;;;;;;;5113091;28;20293;-75
2023/04/13 01:49:30;;;;;;;16.00;2.63;;;;;;;;;;5113696;28;20194;-76
2023/04/13 01:51:58;;;;;;;14.37;2.90;;;;;;;;;;5113050;28;20306;-74
2023/04/13 01:54:26;;;;;;;13.33;2.97;;;;;;;;;;5114009;28;20230;-76
2023/04/13 01:56:56;;;;;;;17.30;2.80;;;;;;;;;;5113653;28;20282;-76
2023/04/13 01:59:23;;;;;;;16.47;3.20;;;;;;;;;;5113203;28;20205;-77
2023/04/13 02:01:50;;;;;;;20.87;3.00;;;;;;;;;;5112455;28;20231;-77
2023/04/13 02:04:19;;;;;;;20.70;3.20;;;;;;;;;;5113087;28;20254;-75
2023/04/13 02:06:47;;;;;;;17.80;3.03;;;;;;;;;;5112949;28;20278;-76
2023/04/13 02:09:14;;;;;;;19.10;2.90;;;;;;;;;;5113246;28;20285;-76
2023/04/13 02:11:42;;;;;;;20.13;3.67;;;;;;;;;;5112928;28;20238;-76
2023/04/13 02:14:10;;;;;;;22.77;3.43;;;;;;;;;;5113325;28;20204;-76
2023/04/13 02:16:37;;;;;;;18.90;3.27;;;;;;;;;;5112650;28;20201;-76
2023/04/13 02:19:04;;;;;;;19.03;2.47;;;;;;;;;;5112616;28;20663;-76
2023/04/13 02:21:33;;;;;;;17.73;2.93;;;;;;;;;;5112743;28;20306;-76
2023/04/13 02:24:01;;;;;;;17.07;3.20;;;;;;;;;;5112832;28;20313;-76
2023/04/13 02:26:28;;;;;;;19.03;3.60;;;;;;;;;;5112785;28;20662;-76
2023/04/13 02:28:55;;;;;;;14.73;3.00;;;;;;;;;;5111617;28;20210;-76
2023/04/13 02:31:22;;;;;;;19.70;3.17;;;;;;;;;;5111438;28;20204;-76
2023/04/13 02:33:50;;;;;;;24.50;3.20;;;;;;;;;;5112264;28;20233;-76
2023/04/13 02:36:17;;;;;;;18.73;3.27;;;;;;;;;;5112862;28;20571;-75
2023/04/13 02:38:46;;;;;;;13.27;2.97;;;;;;;;;;5112496;28;20192;-76
2023/04/13 02:41:14;;;;;;;18.10;3.00;;;;;;;;;;5112049;28;20238;-76
2023/04/13 02:43:42;;;;;;;17.17;2.70;;;;;;;;;;5111856;28;20651;-76
2023/04/13 02:46:09;;;;;;;19.33;3.07;;;;;;;;;;5112160;28;20194;-75
2023/04/13 02:48:36;;;;;;;13.17;2.27;;;;;;;;;;5112547;28;20225;-75
2023/04/13 02:51:04;;;;;;;17.50;2.97;;;;;;;;;;5112497;28;20203;-75
2023/04/13 02:53:31;;;;;;;17.63;2.57;;;;;;;;;;5112259;28;20202;-76
2023/04/13 02:56:00;;;;;;;14.87;2.53;;;;;;;;;;5107374;28;20290;-76
2023/04/13 02:58:31;;;;;;;20.53;3.10;;;;;;;;;;5100604;28;20294;-76
2023/04/13 03:00:58;;;;;;;21.13;2.80;;;;;;;;;;5091581;28;20194;-76
2023/04/13 03:03:25;;;;;;;15.73;3.07;;;;;;;;;;5091871;28;20223;-75
2023/04/13 03:05:52;;;;;;;15.27;2.63;;;;;;;;;;5091535;28;20285;-76
2023/04/13 03:08:20;;;;;;;16.10;2.80;;;;;;;;;;5091299;28;20731;-76
2023/04/13 03:10:47;;;;;;;16.33;2.57;;;;;;;;;;5091527;28;20195;-76
2023/04/13 03:13:16;;;;;;;16.90;2.97;;;;;;;;;;5098496;28;20228;-76
2023/04/13 03:15:43;;;;;;;19.00;2.97;;;;;;;;;;5112011;28;20289;-77
2023/04/13 03:18:10;;;;;;;17.97;2.57;;;;;;;;;;5111586;28;20419;-76
2023/04/13 03:20:37;;;;;;;17.40;2.97;;;;;;;;;;5111579;28;20277;-76
2023/04/13 03:23:04;;;;;;;18.40;3.03;;;;;;;;;;5112362;28;20228;-75
2023/04/13 03:25:31;;;;;;;17.27;3.20;;;;;;;;;;5111738;28;20206;-75
2023/04/13 03:27:59;;;;;;;17.00;2.60;;;;;;;;;;5111450;28;20286;-75
2023/04/13 03:30:28;;;;;;;17.17;3.40;;;;;;;;;;5112188;28;20286;-76
2023/04/13 03:32:55;;;;;;;15.43;2.80;;;;;;;;;;5111632;28;20195;-76
2023/04/13 03:35:22;;;;;;;17.47;2.60;;;;;;;;;;5111124;28;20194;-75
2023/04/13 03:37:49;;;;;;;19.17;2.70;;;;;;;;;;5111391;28;20244;-75
2023/04/13 03:40:17;;;;;;;16.63;2.67;;;;;;;;;;5111581;28;20302;-76
2023/04/13 03:42:44;;;;;;;20.70;2.60;;;;;;;;;;5111500;28;20202;-76
2023/04/13 03:45:12;;;;;;;13.17;3.00;;;;;;;;;;5111382;28;20233;-75
2023/04/13 03:47:40;;;;;;;14.43;2.73;;;;;;;;;;5111641;28;20232;-76
2023/04/13 03:50:08;;;;;;;16.63;2.63;;;;;;;;;;5111647;28;20230;-76
2023/04/13 03:52:35;;;;;;;15.93;2.70;;;;;;;;;;5111840;28;20194;-76
2023/04/13 03:55:03;;;;;;;19.30;3.00;;;;;;;;;;5115908;28;20285;-76
2023/04/13 03:57:30;;;;;;;16.17;2.70;;;;;;;;;;5115306;28;20197;-75
2023/04/13 03:59:57;;;;;;;18.40;2.83;;;;;;;;;;5115225;28;20194;-76
2023/04/13 04:02:25;;;;;;;12.20;2.50;;;;;;;;;;5115562;28;20233;-75
2023/04/13 04:04:53;;;;;;;18.63;2.57;;;;;;;;;;5115873;28;20227;-75
2023/04/13 04:07:22;;;;;;;15.77;2.40;;;;;;;;;;5115421;28;20285;-75
2023/04/13 04:09:49;;;;;;;11.50;2.53;;;;;;;;;;5115033;28;20194;-75
2023/04/13 04:12:16;;;;;;;14.37;2.80;;;;;;;;;;5115170;28;20198;-76
2023/04/13 04:14:43;;;;;;;15.53;2.93;;;;;;;;;;5115239;28;20566;-76
2023/04/13 04:17:11;;;;;;;12.83;2.70;;;;;;;;;;5115575;28;20242;-76
2023/04/13 04:19:38;;;;;;;13.80;2.43;;;;;;;;;;5114985;28;20293;-76
2023/04/13 04:22:06;;;;;;;15.00;2.53;;;;;;;;;;5115428;28;20225;-76
2023/04/13 04:24:34;;;;;;;19.83;2.77;;;;;;;;;;5114985;28;20225;-76
2023/04/13 04:27:01;;;;;;;15.50;2.83;;;;;;;;;;5114945;28;20636;-76
2023/04/13 04:29:33;;;;;;;17.23;2.50;;;;;;;;;;5115074;28;20296;-76
2023/04/13 04:32:01;;;;;;;15.80;2.73;;;;;;;;;;5114794;28;20205;-76
2023/04/13 04:34:28;;;;;;;11.23;2.50;;;;;;;;;;5115219;28;20251;-76
2023/04/13 04:36:55;;;;;;;18.20;3.20;;;;;;;;;;5114525;28;20573;-75
2023/04/13 04:39:25;;;;;;;17.63;2.70;;;;;;;;;;5115063;28;20280;-76
2023/04/13 04:41:53;;;;;;;15.53;2.53;;;;;;;;;;5114104;28;20232;-76
2023/04/13 04:44:23;;;;;;;19.00;2.67;;;;;;;;;;5114885;28;20620;-76
2023/04/13 04:46:51;;;;;;;16.07;2.70;;;;;;;;;;5114817;28;20225;-75
2023/04/13 04:49:20;;;;;;;12.13;2.43;;;;;;;;;;5114904;28;20278;-75
2023/04/13 04:51:47;;;;;;;18.30;3.10;;;;;;;;;;5114472;28;20205;-76
2023/04/13 04:54:16;;;;;;;16.10;2.60;;;;;;;;;;5113893;28;20197;-76
2023/04/13 04:56:45;;;;;;;12.63;2.70;;;;;;;;;;5114431;28;20189;-76
2023/04/13 04:59:12;;;;;;;13.67;2.90;;;;;;;;;;5114455;28;20201;-75
2023/04/13 05:01:41;;;;;;;15.43;3.20;;;;;;;;;;5114305;28;20281;-76
2023/04/13 05:04:09;;;;;;;12.73;2.37;;;;;;;;;;5113406;28;20613;-76
2023/04/13 05:06:40;;;;;;;18.00;2.53;;;;;;;;;;5114394;28;20229;-76
2023/04/13 05:09:07;;;;;;;12.00;2.20;;;;;;;;;;5113548;28;20600;-76
2023/04/13 05:11:35;;;;;;;16.57;2.70;;;;;;;;;;5114170;28;20254;-75
2023/04/13 05:14:03;;;;;;;17.67;2.93;;;;;;;;;;5113732;27;20689;-76
2023/04/13 05:16:32;;;;;;;12.07;2.50;;;;;;;;;;5114371;28;20296;-76
2023/04/13 05:19:00;;;;;;;13.83;2.90;;;;;;;;;;5113338;28;20662;-75
2023/04/13 05:21:27;;;;;;;16.67;2.47;;;;;;;;;;5112705;27;20663;-76
2023/04/13 05:23:55;;;;;;;14.93;2.77;;;;;;;;;;5112883;28;20194;-76
2023/04/13 05:26:24;;;;;;;18.70;2.60;;;;;;;;;;5113744;28;20670;-75
2023/04/13 05:28:51;;;;;;;14.17;2.67;;;;;;;;;;5113751;28;20573;-75
2023/04/13 05:31:22;;;;;;;13.23;2.53;;;;;;;;;;5113825;28;20226;-77
2023/04/13 05:33:50;;;;;;;15.37;3.40;;;;;;;;;;5113751;28;20194;-75
2023/04/13 05:36:17;;;;;;;15.27;2.40;;;;;;;;;;5113623;28;20644;-76
2023/04/13 05:38:44;;;;;;;16.23;2.87;;;;;;;;;;5113092;28;20194;-76
2023/04/13 05:41:11;;;;;;;16.77;2.90;;;;;;;;;;5113400;28;20321;-76
2023/04/13 05:43:39;;;;;;;12.53;3.17;;;;;;;;;;5113914;28;20202;-74
2023/04/13 05:46:06;;;;;;;13.57;2.87;;;;;;;;;;5113188;28;20718;-77
2023/04/13 05:48:35;;;;;;;12.43;3.23;;;;;;;;;;5113308;28;20281;-77
2023/04/13 05:51:02;;;;;;;16.63;2.73;;;;;;;;;;5113268;28;20243;-77
2023/04/13 05:53:29;;;;;;;18.03;2.67;;;;;;;;;;5113067;28;20195;-77
2023/04/13 05:55:57;;;;;;;15.40;3.00;;;;;;;;;;5113006;28;20291;-76
2023/04/13 05:58:25;;;;;;;16.60;3.00;;;;;;;;;;5113482;28;20689;-77
2023/04/13 06:00:52;;;;;;;9.53;2.70;;;;;;;;;;5112566;28;20291;-77
2023/04/13 06:03:20;;;;;;;15.47;3.03;;;;;;;;;;5113509;28;20293;-77
2023/04/13 06:05:48;;;;;;;18.13;3.50;;;;;;;;;;5113112;28;20238;-76
2023/04/13 06:08:16;;;;;;;11.87;3.10;;;;;;;;;;5112827;28;20193;-77
2023/04/13 06:10:44;;;;;;;15.43;3.77;;;;;;;;;;5113264;28;20224;-77
2023/04/13 06:13:12;;;;;;;16.20;3.20;;;;;;;;;;5113405;28;20259;-76
2023/04/13 06:15:39;;;;;;;15.77;3.00;;;;;;;;;;5112421;28;20670;-77
2023/04/13 06:18:06;;;;;;;10.63;2.83;;;;;;;;;;5113066;28;20262;-76
2023/04/13 06:20:34;;;;;;;12.17;2.60;;;;;;;;;;5113123;28;20285;-76
2023/04/13 06:23:03;;;;;;;8.90;3.27;;;;;;;;;;5112396;28;20280;-77
2023/04/13 06:25:30;;;;;;;13.43;4.40;;;;;;;;;;5113108;28;20240;-77
2023/04/13 06:27:57;;;;;;;14.13;4.20;;;;;;;;;;5112833;28;20200;-75
2023/04/13 06:30:25;;;;;;;11.97;3.90;;;;;;;;;;5112881;28;20669;-76
2023/04/13 06:32:52;;;;;;;9.70;3.17;;;;;;;;;;5112478;28;20202;-77
2023/04/13 06:35:19;;;;;;;14.80;2.80;;;;;;;;;;5112885;28;20225;-77
2023/04/13 06:37:47;;;;;;;14.70;2.70;;;;;;;;;;5112203;28;20520;-76
2023/04/13 06:40:16;;;;;;;11.37;2.47;;;;;;;;;;5112603;28;20606;-77
2023/04/13 06:42:44;;;;;;;12.20;3.20;;;;;;;;;;5112576;28;20194;-77
2023/04/13 06:45:12;;;;;;;11.90;2.50;;;;;;;;;;5112928;28;20308;-77
2023/04/13 06:47:40;;;;;;;8.37;2.33;;;;;;;;;;5112461;28;20194;-74
2023/04/13 06:50:08;;;;;;;8.93;2.80;;;;;;;;;;5112521;28;20245;-78
2023/04/13 06:52:36;;;;;;;10.37;2.90;;;;;;;;;;5112149;28;20215;-78
2023/04/13 06:55:04;;;;;;;7.70;2.67;;;;;;;;;;5112448;28;20206;-78
2023/04/13 06:57:32;;;;;;;8.27;2.63;;;;;;;;;;5112134;28;20254;-77
2023/04/13 06:59:59;;;;;;;8.47;2.67;;;;;;;;;;5112211;28;20289;-77
2023/04/13 07:02:27;;;;;;;8.07;2.07;;;;;;;;;;5112402;28;20225;-77
2023/04/13 07:04:54;;;;;;;9.02;2.20;;;;;;;;;;5111783;28;20275;-76
2023/04/13 07:07:21;;;;;;;7.30;2.33;;;;;;;;;;5112028;28;20221;-77
2023/04/13 07:09:48;;;;;;;9.50;2.30;;;;;;;;;;5112160;28;20204;-76
2023/04/13 07:12:16;;;;;;;8.20;2.25;;;;;;;;;;5112391;28;20190;-77
2023/04/13 07:14:46;;;;;;;6.65;1.70;;;;;;;;;;5112025;28;20288;-77
2023/04/13 07:17:13;;;;;;;7.95;2.45;;;;;;;;;;5112006;28;20244;-77
2023/04/13 07:19:45;;;;;;;7.18;2.20;;;;;;;;;;5111636;28;20197;-77
2023/04/13 07:22:12;;;;;;;7.40;2.00;;;;;;;;;;5111968;28;20201;-78
2023/04/13 07:24:40;;;;;;;7.15;1.92;;;;;;;;;;5111778;28;20313;-78
2023/04/13 07:27:07;;;;;;;5.40;1.90;;;;;;;;;;5111873;28;20198;-78
2023/04/13 07:29:34;;;;;;;8.38;2.50;;;;;;;;;;5111692;28;20288;-78
2023/04/13 07:32:04;;;;;;;6.20;2.20;;;;;;;;;;5111586;28;20205;-77
2023/04/13 07:34:32;;;;;;;9.43;2.55;;;;;;;;;;5111333;28;20193;-75
2023/04/13 07:36:59;;;;;;;8.02;2.75;;;;;;;;;;5111799;28;20198;-77
2023/04/13 07:39:26;;;;;;;6.88;3.03;;;;;;;;;;5111873;28;20721;-78
2023/04/13 07:41:53;;;;;;;13.52;3.60;;;;;;;;;;5110956;28;20229;-77
2023/04/13 07:44:21;;;;;;;9.93;3.97;;;;;;;;;;5111768;28;20292;-77
2023/04/13 07:46:48;;;;;;;11.05;4.70;;;;;;;;;;5111933;28;20324;-78
2023/04/13 07:49:16;;;;;;;11.40;4.57;;;;;;;;;;5110840;28;20194;-77
2023/04/13 07:51:43;;;;;;;9.55;4.68;;;;;;;;;;5111626;28;20281;-77
2023/04/13 07:54:11;;;;;;;10.85;4.43;;;;;;;;;;5111583;28;20233;-76
2023/04/13 07:56:38;;;;;;;11.45;4.75;;;;;;;;;;5111864;28;20225;-76
2023/04/13 07:59:05;;;;;;;9.70;4.13;;;;;;;;;;5111733;28;20193;-76
2023/04/13 08:01:33;;;;;;;9.20;3.33;;;;;;;;;;5111156;28;20300;-77
2023/04/13 08:04:00;;;;;;;10.00;3.15;;;;;;;;;;5111023;28;20241;-76
2023/04/13 08:06:30;;;;;;;7.25;2.35;;;;;;;;;;5111178;28;20225;-76
2023/04/13 08:08:57;;;;;;;8.65;2.53;;;;;;;;;;5111346;28;20190;-77
2023/04/13 08:11:24;;;;;;;4.00;1.73;;;;;;;;;;5111695;28;20225;-78
2023/04/13 08:13:52;;;;;;;5.78;1.70;;;;;;;;;;5111186;28;20198;-76
2023/04/13 08:16:19;;;;;;;5.07;1.83;;;;;;;;;;5111290;28;20284;-76
2023/04/13 08:18:46;;;;;;;4.60;1.40;;;;;;;;;;5110719;28;20194;-77
2023/04/13 08:21:14;;;;;;;5.57;1.70;;;;;;;;;;5111509;28;20708;-77
2023/04/13 08:23:42;;;;;;;6.07;1.80;;;;;;;;;;5111693;28;20205;-77
2023/04/13 08:26:17;;;;;;;5.22;1.65;;;;;;;;;;5111180;28;20260;-78
2023/04/13 08:28:44;;;;;;;4.35;1.40;;;;;;;;;;5111654;28;20334;-77
2023/04/13 08:31:12;;;;;;;3.53;1.50;;;;;;;;;;5111077;28;20666;-77
2023/04/13 08:33:39;;;;;;;4.88;1.20;;;;;;;;;;5110897;28;20281;-77
2023/04/13 08:36:07;;;;;;;4.68;1.45;;;;;;;;;;5111642;28;20631;-78
2023/04/13 08:38:34;;;;;;;3.95;1.52;;;;;;;;;;5111426;28;20317;-77
2023/04/13 08:41:03;;;;;;;4.80;1.30;;;;;;;;;;5115183;28;20230;-77
2023/04/13 08:43:34;;;;;;;4.20;1.30;;;;;;;;;;5114916;28;20221;-77
2023/04/13 08:46:01;;;;;;;4.35;1.65;;;;;;;;;;5115002;28;20353;-77
2023/04/13 08:48:28;;;;;;;4.68;1.63;;;;;;;;;;5114449;28;20243;-78
2023/04/13 08:50:58;;;;;;;4.43;1.50;;;;;;;;;;5114591;28;20655;-78
2023/04/13 08:53:25;;;;;;;7.75;1.60;;;;;;;;;;5114297;28;20197;-77
2023/04/13 08:55:53;;;;;;;7.05;1.40;;;;;;;;;;5114827;28;20277;-77
2023/04/13 08:58:24;;;;;;;4.68;1.60;;;;;;;;;;5114934;28;20581;-77
2023/04/13 09:00:52;;;;;;;5.57;1.90;;;;;;;;;;5114269;28;20204;-77
2023/04/13 09:03:21;;;;;;;7.10;1.63;;;;;;;;;;5114779;28;20194;-77
2023/04/13 09:05:52;;;;;;;4.53;1.13;;;;;;;;;;5114461;28;20217;-77
2023/04/13 09:08:21;;;;;;;4.75;1.40;;;;;;;;;;5114474;28;20709;-77
2023/04/13 09:10:48;;;;;;;6.97;1.67;;;;;;;;;;5114426;28;20198;-77
2023/04/13 09:13:15;;;;;;;7.05;1.80;;;;;;;;;;5114421;28;20229;-77
2023/04/13 09:15:46;;;;;;;6.03;1.40;;;;;;;;;;5114562;28;20194;-77
2023/04/13 09:18:14;;;;;;;6.22;1.25;;;;;;;;;;5114315;28;20198;-77
2023/04/13 09:20:42;;;;;;;5.13;1.40;;;;;;;;;;5114058;28;20586;-77
2023/04/13 09:23:13;;;;;;;7.78;1.30;;;;;;;;;;5114305;28;20229;-77
2023/04/13 09:25:41;;;;;;;4.97;1.40;;;;;;;;;;5113712;28;20905;-78
2023/04/13 09:28:08;;;;;;;3.30;0.80;;;;;;;;;;5114327;28;20237;-77
2023/04/13 09:30:35;;;;;;;4.43;0.80;;;;;;;;;;5113593;28;20225;-77
2023/04/13 09:33:04;;;;;;;3.15;0.90;;;;;;;;;;5114335;28;20285;-78
2023/04/13 09:35:32;;;;;;;4.57;0.95;;;;;;;;;;5113905;28;20658;-78
2023/04/13 09:37:59;;;;;;;7.88;1.60;;;;;;;;;;5113995;28;20732;-78
2023/04/13 09:40:27;;;;;;;4.85;1.48;;;;;;;;;;5113166;28;20312;-77
2023/04/13 09:42:55;;;;;;;4.50;1.00;;;;;;;;;;5112660;28;20232;-78
2023/04/13 09:45:22;;;;;;;2.20;0.82;;;;;;;;;;5113308;28;20228;-77
2023/04/13 09:47:51;;;;;;;4.65;1.20;;;;;;;;;;5111813;28;20705;-78
2023/04/13 09:50:22;;;;;;;3.00;1.00;;;;;;;;;;5114167;28;20247;-75
2023/04/13 09:52:59;;;;;;;5.32;1.20;;;;;;;;;;5113852;28;20214;-76
2023/04/13 09:55:27;;;;;;;4.50;0.93;;;;;;;;;;5108281;28;20228;-77
2023/04/13 09:57:55;;;;;;;5.57;0.95;;;;;;;;;;5112180;28;20690;-75
2023/04/13 10:00:22;;;;;;;5.85;1.25;;;;;;;;;;5112225;28;20198;-76
2023/04/13 10:02:50;;;;;;;6.38;1.10;;;;;;;;;;5097051;28;20275;-75
2023/04/13 10:05:17;;;;;;;6.78;1.30;;;;;;;;;;5107757;28;20205;-74
2023/04/13 10:07:47;;;;;;;4.10;1.02;;;;;;;;;;5108801;28;20202;-74
2023/04/13 10:10:15;;;;;;;7.78;1.33;;;;;;;;;;5111909;28;20297;-76
2023/04/13 10:12:44;;;;;;;4.45;1.30;;;;;;;;;;5109561;28;20205;-75
2023/04/13 10:15:19;;;;;;;5.68;1.05;;;;;;;;;;5097910;28;20723;-77
2023/04/13 10:17:52;;;;;;;4.53;1.08;;;;;;;;;;5112094;28;20189;-75
2023/04/13 10:20:20;;;;;;;4.22;1.23;;;;;;;;;;5112202;28;20202;-77
2023/04/13 10:22:49;;;;;;;4.88;1.10;;;;;;;;;;5112483;27;20197;-76
2023/04/13 10:25:17;;;;;;;4.80;0.80;;;;;;;;;;5111490;28;20698;-76
2023/04/13 10:27:44;;;;;;;4.35;0.52;;;;;;;;;;5110106;28;20198;-75
2023/04/13 10:30:16;;;;;;;2.72;0.88;;;;;;;;;;5100732;28;20720;-79
2023/04/13 10:32:43;;;;;;;3.35;0.80;;;;;;;;;;5091690;28;20244;-76
2023/04/13 10:35:11;;;;;;;3.88;0.85;;;;;;;;;;5111104;28;20197;-75
2023/04/13 10:37:39;;;;;;;2.50;0.60;;;;;;;;;;5110214;28;20222;-76
2023/04/13 10:40:12;;;;;;;3.15;0.80;;;;;;;;;;5110173;28;20229;-77
2023/04/13 10:42:45;;;;;;;3.85;0.70;;;;;;;;;;5107690;28;20201;-76
2023/04/13 10:45:20;;;;;;;3.10;0.80;;;;;;;;;;5098880;28;20562;-77
2023/04/13 10:47:47;;;;;;;4.22;0.93;;;;;;;;;;5096061;28;20265;-75
2023/04/13 10:50:17;;;;;;;2.63;0.70;;;;;;;;;;5111445;28;20202;-77
2023/04/13 10:53:00;;;;;;;4.32;0.77;;;;;;;;;;5111325;28;20213;-75
2023/04/13 10:55:29;;;;;;;3.95;0.90;;;;;;;;;;5099880;27;20749;-77
2023/04/13 10:57:56;;;;;;;3.97;1.08;;;;;;;;;;5104443;28;20276;-78
2023/04/13 11:00:28;;;;;;;2.60;0.90;;;;;;;;;;5105518;28;20233;-77
2023/04/13 11:02:56;;;;;;;4.68;1.00;;;;;;;;;;5111787;28;20201;-77
2023/04/13 11:05:24;;;;;;;2.55;0.80;;;;;;;;;;5112036;28;20276;-77
2023/04/13 11:07:52;;;;;;;1.90;0.52;;;;;;;;;;5112567;28;20229;-77
2023/04/13 11:10:24;;;;;;;3.53;0.85;;;;;;;;;;5112035;28;20198;-76
2023/04/13 11:12:53;;;;;;;2.55;0.70;;;;;;;;;;5118674;27;20201;-77
2023/04/13 11:15:21;;;;;;;3.58;0.80;;;;;;;;;;5111844;28;20277;-76
2023/04/13 11:17:52;;;;;;;3.20;0.77;;;;;;;;;;5111964;28;20193;-76
2023/04/13 11:20:20;;;;;;;4.22;1.15;;;;;;;;;;5112184;28;20288;-75
2023/04/13 11:22:47;;;;;;;2.80;0.75;;;;;;;;;;5111237;28;20281;-75
2023/04/13 11:25:15;;;;;;;6.20;1.45;;;;;;;;;;5112031;28;20196;-76
2023/04/13 11:27:42;;;;;;;1.95;1.00;;;;;;;;;;5111777;28;20713;-75
2023/04/13 11:30:12;;;;;;;3.17;0.82;;;;;;;;;;5112141;28;20205;-77
2023/04/13 11:32:41;;;;;;;3.63;0.82;;;;;;;;;;5111515;28;20733;-76
2023/04/13 11:35:09;;;;;;;2.13;0.93;;;;;;;;;;5111871;28;20202;-78
2023/04/13 11:37:40;;;;;;;4.00;1.10;;;;;;;;;;5111878;28;20189;-77
2023/04/13 11:40:13;;;;;;;4.13;0.80;;;;;;;;;;5111312;28;20233;-76
2023/04/13 11:42:43;;;;;;;3.72;0.70;;;;;;;;;;5111795;28;20201;-76
2023/04/13 11:45:12;;;;;;;1.77;0.50;;;;;;;;;;5111695;28;20613;-77
2023/04/13 11:47:39;;;;;;;2.75;0.50;;;;;;;;;;5130026;28;20229;-78
2023/04/13 11:50:08;;;;;;;3.67;0.70;;;;;;;;;;5131857;28;20644;-78
2023/04/13 11:52:35;;;;;;;2.28;0.70;;;;;;;;;;5132164;28;20279;-78
2023/04/13 11:55:05;;;;;;;3.20;0.60;;;;;;;;;;5118529;28;20194;-78
2023/04/13 11:57:32;;;;;;;2.07;0.63;;;;;;;;;;5111439;28;20573;-79
2023/04/13 12:00:00;;;;;;;1.33;0.70;;;;;;;;;;5111526;28;20204;-79
2023/04/13 12:02:29;;;;;;;3.93;0.97;;;;;;;;;;5111690;28;20254;-79
2023/04/13 12:04:56;;;;;;;4.27;0.87;;;;;;;;;;5129797;28;20250;-80
2023/04/13 12:07:24;;;;;;;3.43;1.00;;;;;;;;;;5111462;28;20225;-76
2023/04/13 12:09:52;;;;;;;1.83;0.40;;;;;;;;;;5111180;28;20684;-77
2023/04/13 12:12:21;;;;;;;1.70;0.40;;;;;;;;;;5111172;28;20204;-78
2023/04/13 12:14:54;;;;;;;3.07;0.60;;;;;;;;;;5113565;28;20281;-78
2023/04/13 12:17:21;;;;;;;1.53;0.43;;;;;;;;;;5113417;28;20288;-79
2023/04/13 12:19:55;;;;;;;2.47;0.50;;;;;;;;;;5100838;28;20833;-78
2023/04/13 12:22:22;;;;;;;3.00;0.47;;;;;;;;;;5108938;28;20193;-78
2023/04/13 12:24:49;;;;;;;1.87;0.40;;;;;;;;;;5114971;28;20641;-79
2023/04/13 12:27:17;;;;;;;1.60;0.70;;;;;;;;;;5115103;28;20418;-78
2023/04/13 12:29:44;;;;;;;4.63;0.80;;;;;;;;;;5115482;28;20193;-78
2023/04/13 12:32:12;;;;;;;1.40;0.50;;;;;;;;;;5111411;27;20206;-78
2023/04/13 12:34:40;;;;;;;2.13;0.60;;;;;;;;;;5113415;27;20205;-77
2023/04/13 12:37:09;;;;;;;2.70;0.60;;;;;;;;;;5114789;27;20200;-78
2023/04/13 12:39:37;;;;;;;2.63;0.40;;;;;;;;;;5116167;27;20190;-78
2023/04/13 12:42:04;;;;;;;0.90;0.40;;;;;;;;;;5114344;28;20702;-79
2023/04/13 12:44:31;;;;;;;1.67;0.40;;;;;;;;;;5114485;28;20226;-78
2023/04/13 12:46:58;;;;;;;1.20;0.33;;;;;;;;;;5114177;28;20316;-78
2023/04/13 12:49:25;;;;;;;2.30;0.50;;;;;;;;;;5114172;28;20216;-78
2023/04/13 12:51:52;;;;;;;0.57;0.40;;;;;;;;;;5115137;27;20667;-78
2023/04/13 12:54:21;;;;;;;2.80;1.00;;;;;;;;;;5114325;27;20287;-78
2023/04/13 12:56:48;;;;;;;4.70;1.07;;;;;;;;;;5109760;28;20288;-77
2023/04/13 12:59:16;;;;;;;3.13;0.37;;;;;;;;;;5113729;28;20277;-78
2023/04/13 13:01:43;;;;;;;1.93;0.50;;;;;;;;;;5113330;28;20247;-78
2023/04/13 13:04:10;;;;;;;2.23;0.60;;;;;;;;;;5113993;28;20190;-78
2023/04/13 13:06:37;;;;;;;2.10;0.67;;;;;;;;;;5114828;27;20245;-78
2023/04/13 13:09:06;;;;;;;1.33;0.40;;;;;;;;;;5113234;28;20221;-77
2023/04/13 13:11:35;;;;;;;1.60;0.40;;;;;;;;;;5114629;28;20228;-78
2023/04/13 13:14:02;;;;;;;1.27;0.30;;;;;;;;;;5100771;28;20255;-79
2023/04/13 13:16:29;;;;;;;1.43;0.27;;;;;;;;;;5108636;28;20733;-79
2023/04/13 13:18:56;;;;;;;1.53;0.50;;;;;;;;;;5127274;27;20810;-78
2023/04/13 13:21:23;;;;;;;2.23;0.40;;;;;;;;;;5110273;28;20280;-78
2023/04/13 13:23:51;;;;;;;2.30;0.70;;;;;;;;;;5109908;28;20709;-78
2023/04/13 13:26:18;;;;;;;2.20;1.03;;;;;;;;;;5113228;28;20194;-76
2023/04/13 13:28:46;;;;;;;1.77;1.00;;;;;;;;;;5113497;28;20238;-78
2023/04/13 13:31:14;;;;;;;2.37;0.90;;;;;;;;;;5110963;28;20238;-78
2023/04/13 13:33:41;;;;;;;2.57;0.60;;;;;;;;;;5111771;28;20190;-76
2023/04/13 13:36:08;;;;;;;1.73;0.67;;;;;;;;;;5112782;28;20194;-76
2023/04/13 13:38:36;;;;;;;3.73;0.50;;;;;;;;;;5112731;28;20651;-77
2023/04/13 13:41:03;;;;;;;1.50;0.50;;;;;;;;;;5110784;28;20279;-75
2023/04/13 13:43:31;;;;;;;0.73;0.40;;;;;;;;;;5113136;28;20194;-76
2023/04/13 13:45:59;;;;;;;0.70;0.20;;;;;;;;;;5113054;28;20692;-77
2023/04/13 13:48:27;;;;;;;0.70;0.10;;;;;;;;;;5112070;28;20217;-77
2023/04/13 13:50:54;;;;;;;0.53;0.10;;;;;;;;;;5109587;28;20288;-75
2023/04/13 13:53:27;;;;;;;0.93;0.20;;;;;;;;;;5117512;27;20225;-75
2023/04/13 13:55:55;;;;;;;1.17;0.30;;;;;;;;;;5112498;28;20569;-76
2023/04/13 13:58:22;;;;;;;0.80;0.20;;;;;;;;;;5105292;28;20233;-77
2023/04/13 14:00:49;;;;;;;1.23;0.30;;;;;;;;;;5097046;28;20288;-76
2023/04/13 14:03:18;;;;;;;0.90;0.50;;;;;;;;;;5095540;28;20196;-75
2023/04/13 14:05:45;;;;;;;1.43;0.70;;;;;;;;;;5108899;28;20197;-77
2023/04/13 14:08:12;;;;;;;0.80;0.50;;;;;;;;;;5095384;28;20256;-77
2023/04/13 14:10:41;;;;;;;3.93;1.00;;;;;;;;;;5109315;28;20657;-78
2023/04/13 14:13:08;;;;;;;1.37;0.70;;;;;;;;;;5113724;28;20952;-77
2023/04/13 14:15:36;;;;;;;1.20;0.30;;;;;;;;;;5112774;28;20205;-77
2023/04/13 14:18:03;;;;;;;1.10;0.20;;;;;;;;;;5113054;28;20642;-76
2023/04/13 14:20:32;;;;;;;0.70;0.50;;;;;;;;;;5113453;27;20232;-78
2023/04/13 14:22:59;;;;;;;0.93;0.33;;;;;;;;;;5113404;28;20196;-77
2023/04/13 14:25:26;;;;;;;1.30;0.30;;;;;;;;;;5112891;28;20193;-77
2023/04/13 14:27:53;;;;;;;1.60;0.40;;;;;;;;;;5113077;28;20304;-77
2023/04/13 14:30:22;;;;;;;1.20;0.30;;;;;;;;;;5112228;28;20190;-76
2023/04/13 14:32:50;;;;;;;1.30;0.23;;;;;;;;;;5112130;28;20335;-77
2023/04/13 14:35:17;;;;;;;1.20;0.33;;;;;;;;;;5112023;28;20199;-76
2023/04/13 14:37:46;;;;;;;2.23;0.50;;;;;;;;;;5112646;27;20302;-77
2023/04/13 14:40:15;;;;;;;1.00;0.30;;;;;;;;;;5092265;28;20253;-77